Time;durP1;ratioP1;P1;durP2;ratioP2;P2;SDS_P1;SDS_P2;PMS_P1;PMS_P2;Temp;Humidity;BMP_temperature;BMP_pressure;BME280_temperature;BME280_humidity;BME280_pressure;Samples;Min_cycle;Max_cycle;Signal;HPM_P1;HPM_P2
2021/07/14 00:02:24;;;;;;;7.47;7.17;;;19.10;99.90;;;;;;5054053;28;20251;-67
2021/07/14 00:04:49;;;;;;;7.73;7.43;;;19.00;99.90;;;;;;5054150;28;20183;-67
2021/07/14 00:07:15;;;;;;;6.73;6.43;;;19.00;99.90;;;;;;5052488;28;20199;-67
2021/07/14 00:09:40;;;;;;;6.47;6.27;;;19.00;99.90;;;;;;5053841;28;20713;-66
2021/07/14 00:12:09;;;;;;;5.87;5.67;;;19.00;99.90;;;;;;5053599;28;20183;-66
2021/07/14 00:22:31;;;;;;;5.67;5.47;;;18.90;99.90;;;;;;5053584;28;20217;-67
2021/07/14 00:24:57;;;;;;;5.73;5.53;;;18.90;99.90;;;;;;5053190;28;20207;-67
2021/07/14 00:27:24;;;;;;;6.43;6.17;;;18.90;99.90;;;;;;5062037;28;20748;-67
2021/07/14 00:29:53;;;;;;;5.50;5.27;;;18.90;99.90;;;;;;5072866;28;20177;-67
2021/07/14 00:32:19;;;;;;;5.17;4.97;;;18.90;99.90;;;;;;5070238;28;20174;-67
2021/07/14 00:34:45;;;;;;;5.33;5.13;;;18.90;99.90;;;;;;5072822;28;20289;-67
2021/07/14 00:37:12;;;;;;;5.07;4.87;;;18.90;99.90;;;;;;5072332;28;20233;-67
2021/07/14 00:39:38;;;;;;;5.97;5.77;;;19.00;99.90;;;;;;5072672;28;20166;-67
2021/07/14 00:42:07;;;;;;;6.83;6.53;;;19.00;99.90;;;;;;5072439;28;20213;-67
2021/07/14 00:44:33;;;;;;;5.77;5.57;;;19.00;99.90;;;;;;5072827;28;20185;-67
2021/07/14 00:47:01;;;;;;;5.97;5.77;;;19.00;99.90;;;;;;5072349;28;20286;-67
2021/07/14 00:49:28;;;;;;;6.73;6.37;;;19.10;99.90;;;;;;5072674;28;20253;-67
2021/07/14 00:51:54;;;;;;;6.00;5.80;;;19.10;99.90;;;;;;5072100;28;20181;-68
2021/07/14 00:54:20;;;;;;;5.60;5.40;;;19.10;99.90;;;;;;5072481;28;20174;-67
2021/07/14 00:56:47;;;;;;;4.90;4.70;;;19.10;99.90;;;;;;5072430;28;20217;-67
2021/07/14 00:59:12;;;;;;;5.90;5.70;;;19.10;99.90;;;;;;5072291;28;20196;-67
2021/07/14 01:01:38;;;;;;;5.50;5.27;;;19.10;99.90;;;;;;5072260;28;20206;-67
2021/07/14 01:04:10;;;;;;;5.43;5.23;;;19.10;99.90;;;;;;5072062;28;20178;-66
2021/07/14 01:07:14;;;;;;;5.50;5.30;;;19.10;99.90;;;;;;5072257;28;20174;-67
2021/07/14 01:09:49;;;;;;;8.67;8.37;;;19.10;99.90;;;;;;5028301;28;20580;-67
2021/07/14 01:12:23;;;;;;;6.17;5.97;;;19.00;99.90;;;;;;5052111;28;20234;-67
2021/07/14 01:15:04;;;;;;;5.50;5.30;;;18.90;99.90;;;;;;5071412;28;20189;-67
2021/07/14 01:17:36;;;;;;;5.53;5.33;;;18.90;99.90;;;;;;5072084;28;20201;-67
2021/07/14 01:20:10;;;;;;;5.60;5.33;;;18.80;99.90;;;;;;5071738;28;20643;-67
2021/07/14 01:22:51;;;;;;;5.07;4.87;;;18.80;99.90;;;;;;5072093;28;20247;-67
2021/07/14 01:25:43;;;;;;;5.10;4.90;;;18.80;99.90;;;;;;5072003;28;20174;-67
2021/07/14 01:28:10;;;;;;;5.33;5.13;;;18.80;99.90;;;;;;5071489;28;20230;-67
2021/07/14 01:30:36;;;;;;;4.90;4.70;;;18.70;99.90;;;;;;5071697;28;20177;-67
2021/07/14 01:33:04;;;;;;;4.93;4.73;;;18.80;99.90;;;;;;5070243;28;20175;-67
2021/07/14 01:35:34;;;;;;;4.70;4.50;;;18.70;99.90;;;;;;5071390;28;20679;-67
2021/07/14 01:38:01;;;;;;;4.70;4.50;;;18.60;99.90;;;;;;5071632;28;20194;-67
2021/07/14 01:40:29;;;;;;;5.30;5.10;;;18.60;99.90;;;;;;5071308;28;20202;-67
2021/07/14 01:42:58;;;;;;;5.30;5.10;;;18.60;99.90;;;;;;5071486;28;20189;-67
2021/07/14 01:45:34;;;;;;;5.50;5.30;;;18.60;99.90;;;;;;5071665;28;20170;-67
2021/07/14 01:48:01;;;;;;;5.33;5.13;;;18.60;99.90;;;;;;5071400;28;20197;-67
2021/07/14 01:50:29;;;;;;;5.30;5.10;;;18.60;99.90;;;;;;5071393;28;20852;-67
2021/07/14 01:52:55;;;;;;;5.43;5.23;;;18.60;99.90;;;;;;5071442;28;20178;-67
2021/07/14 01:55:23;;;;;;;6.87;6.57;;;18.60;99.90;;;;;;5071718;28;20170;-67
2021/07/14 01:57:53;;;;;;;9.47;9.07;;;18.60;99.90;;;;;;5070979;28;20202;-67
2021/07/14 02:00:19;;;;;;;9.07;8.70;;;18.70;99.90;;;;;;5069819;28;20260;-67
2021/07/14 02:03:05;;;;;;;5.10;4.90;;;18.60;99.90;;;;;;5071443;28;20264;-67
2021/07/14 02:05:32;;;;;;;5.73;5.33;;;18.60;99.90;;;;;;5071539;28;20253;-67
2021/07/14 02:07:59;;;;;;;5.33;5.13;;;18.60;99.90;;;;;;5071649;28;20571;-72
2021/07/14 02:10:27;;;;;;;6.00;5.80;;;18.60;99.90;;;;;;5072826;28;20261;-72
2021/07/14 02:12:53;;;;;;;5.50;5.30;;;18.60;99.90;;;;;;5072942;28;20285;-70
2021/07/14 02:15:20;;;;;;;5.70;5.50;;;18.60;99.90;;;;;;5073037;28;20614;-70
2021/07/14 02:18:06;;;;;;;5.37;5.17;;;18.50;99.90;;;;;;5072532;28;20220;-71
2021/07/14 02:20:32;;;;;;;5.20;5.00;;;18.50;99.90;;;;;;5072790;28;20206;-71
2021/07/14 02:22:57;;;;;;;5.43;5.23;;;18.40;99.90;;;;;;5071337;28;20273;-72
2021/07/14 02:25:23;;;;;;;5.20;5.00;;;18.40;99.90;;;;;;5073019;28;20182;-71
2021/07/14 02:27:49;;;;;;;5.53;5.33;;;18.40;99.90;;;;;;5072828;28;20201;-72
2021/07/14 02:30:21;;;;;;;5.43;5.23;;;18.40;99.90;;;;;;5072542;28;20507;-68
2021/07/14 02:33:07;;;;;;;5.80;5.60;;;18.40;99.90;;;;;;5072999;28;20256;-71
2021/07/14 02:35:44;;;;;;;5.13;4.93;;;18.50;99.90;;;;;;5072783;28;20185;-70
2021/07/14 02:38:19;;;;;;;5.50;5.30;;;18.50;99.90;;;;;;5072372;28;20198;-72
2021/07/14 02:41:20;;;;;;;5.37;5.17;;;18.50;99.90;;;;;;5072589;28;20205;-71
2021/07/14 02:43:55;;;;;;;4.93;4.73;;;18.50;99.90;;;;;;5058553;28;20706;-72
2021/07/14 02:46:26;;;;;;;4.80;4.60;;;18.50;99.90;;;;;;5071256;28;20544;-70
2021/07/14 02:48:55;;;;;;;5.40;5.20;;;18.40;99.90;;;;;;5072402;28;20178;-70
2021/07/14 02:51:28;;;;;;;5.13;4.93;;;18.40;99.90;;;;;;5072159;28;20178;-71
2021/07/14 02:53:58;;;;;;;6.20;5.90;;;18.30;99.90;;;;;;5072726;28;20649;-70
2021/07/14 02:56:28;;;;;;;5.80;5.60;;;18.30;99.90;;;;;;5072305;28;20178;-71
2021/07/14 02:58:57;;;;;;;5.40;5.20;;;18.30;99.90;;;;;;5072041;28;20185;-70
2021/07/14 03:01:24;;;;;;;5.17;4.97;;;18.30;99.90;;;;;;5072140;28;20232;-70
2021/07/14 03:03:52;;;;;;;5.30;5.10;;;18.30;99.90;;;;;;5072202;28;20256;-71
2021/07/14 03:06:18;;;;;;;5.40;5.20;;;18.30;99.90;;;;;;5072164;28;20166;-72
2021/07/14 03:08:47;;;;;;;5.10;4.90;;;18.40;99.90;;;;;;5072318;28;20174;-71
2021/07/14 03:11:14;;;;;;;4.93;4.73;;;18.30;99.90;;;;;;5073528;28;20606;-70
2021/07/14 03:13:42;;;;;;;5.57;5.37;;;18.20;99.90;;;;;;5076083;28;20178;-72
2021/07/14 03:16:08;;;;;;;5.60;5.40;;;18.30;99.90;;;;;;5075705;28;20182;-71
2021/07/14 03:18:36;;;;;;;5.67;5.47;;;18.30;99.90;;;;;;5075263;28;20217;-70
2021/07/14 03:21:03;;;;;;;5.23;5.03;;;18.30;99.90;;;;;;5075519;28;20763;-70
2021/07/14 03:23:30;;;;;;;4.90;4.70;;;18.30;99.90;;;;;;5075303;28;20187;-74
2021/07/14 03:25:58;;;;;;;5.10;4.90;;;18.40;99.90;;;;;;5075692;28;20921;-70
2021/07/14 03:28:26;;;;;;;5.03;4.83;;;18.40;99.90;;;;;;5075061;28;20205;-69
2021/07/14 03:30:55;;;;;;;4.63;4.43;;;18.50;99.90;;;;;;5074168;28;20231;-70
2021/07/14 03:33:20;;;;;;;5.23;5.03;;;18.50;99.90;;;;;;5075721;28;20189;-70
2021/07/14 03:35:48;;;;;;;5.30;5.10;;;18.50;99.90;;;;;;5074554;28;20689;-72
2021/07/14 03:38:15;;;;;;;4.90;4.70;;;18.50;99.90;;;;;;5074154;28;20202;-70
2021/07/14 03:40:42;;;;;;;5.30;5.10;;;18.50;99.90;;;;;;5075546;28;20224;-72
2021/07/14 03:43:09;;;;;;;5.20;5.00;;;18.60;99.90;;;;;;5075515;28;20182;-70
2021/07/14 03:45:37;;;;;;;6.60;6.33;;;18.50;99.90;;;;;;5075052;28;20174;-71
2021/07/14 03:48:03;;;;;;;6.53;6.30;;;18.60;99.90;;;;;;5073988;28;20283;-70
2021/07/14 03:50:29;;;;;;;6.17;5.97;;;18.60;99.90;;;;;;5073952;28;20182;-68
2021/07/14 03:52:55;;;;;;;6.03;5.83;;;18.70;99.90;;;;;;5073542;28;20182;-69
2021/07/14 03:55:21;;;;;;;5.83;5.63;;;18.80;99.90;;;;;;5072959;28;20174;-69
2021/07/14 03:57:47;;;;;;;5.20;5.00;;;18.80;99.90;;;;;;5072536;28;20232;-68
2021/07/14 04:00:14;;;;;;;5.67;5.47;;;18.80;99.90;;;;;;5073185;28;20174;-68
2021/07/14 04:02:44;;;;;;;5.87;5.67;;;18.80;99.90;;;;;;5073486;28;20544;-68
2021/07/14 04:05:10;;;;;;;5.50;5.27;;;18.70;99.90;;;;;;5073513;28;20181;-69
2021/07/14 04:07:40;;;;;;;7.33;6.73;;;18.70;99.90;;;;;;5072528;28;20564;-68
2021/07/14 04:10:07;;;;;;;6.30;5.90;;;18.60;99.90;;;;;;5073180;28;20177;-68
2021/07/14 04:12:32;;;;;;;6.17;5.87;;;18.50;99.90;;;;;;5072024;28;20248;-69
2021/07/14 04:14:58;;;;;;;6.03;5.73;;;18.50;99.90;;;;;;5072326;28;20182;-68
2021/07/14 04:17:24;;;;;;;6.77;6.10;;;18.50;99.90;;;;;;5073076;28;20202;-68
2021/07/14 04:19:49;;;;;;;8.23;7.73;;;18.50;99.90;;;;;;5073357;28;20231;-68
2021/07/14 04:22:15;;;;;;;7.80;7.40;;;18.50;99.90;;;;;;5071378;28;20541;-68
2021/07/14 04:24:42;;;;;;;7.73;7.13;;;18.50;99.90;;;;;;5073562;28;20174;-68
2021/07/14 04:27:08;;;;;;;7.53;7.07;;;18.50;99.90;;;;;;5072938;28;20198;-67
2021/07/14 04:29:34;;;;;;;7.77;7.37;;;18.50;99.90;;;;;;5073206;28;20174;-68
2021/07/14 04:32:01;;;;;;;8.07;7.60;;;18.50;99.90;;;;;;5072657;28;20265;-68
2021/07/14 04:34:27;;;;;;;6.77;6.37;;;18.50;99.90;;;;;;5072933;28;20198;-68
2021/07/14 04:36:53;;;;;;;13.73;6.83;;;18.50;99.90;;;;;;5072697;28;20206;-68
2021/07/14 04:39:19;;;;;;;7.00;6.40;;;18.50;99.90;;;;;;5072824;28;20174;-68
2021/07/14 04:41:45;;;;;;;7.27;6.77;;;18.50;99.90;;;;;;5072278;28;20210;-68
2021/07/14 04:44:11;;;;;;;9.00;6.87;;;18.40;99.90;;;;;;5072238;28;20166;-68
2021/07/14 04:46:39;;;;;;;15.40;6.30;;;18.40;99.90;;;;;;5072387;28;20178;-68
2021/07/14 04:49:05;;;;;;;7.03;6.63;;;18.40;99.90;;;;;;5072458;28;20181;-68
2021/07/14 04:51:30;;;;;;;7.30;6.90;;;18.40;99.90;;;;;;5072459;28;20593;-68
2021/07/14 04:53:56;;;;;;;7.40;6.77;;;18.40;99.90;;;;;;5072451;28;20268;-68
2021/07/14 04:56:22;;;;;;;8.40;7.90;;;18.30;99.90;;;;;;5072441;28;20265;-68
2021/07/14 04:58:48;;;;;;;7.37;6.87;;;18.30;99.90;;;;;;5072465;28;20186;-68
2021/07/14 05:01:15;;;;;;;11.40;7.27;;;18.30;99.90;;;;;;5071950;28;20198;-68
2021/07/14 05:03:44;;;;;;;8.23;7.73;;;18.20;99.90;;;;;;5072278;28;20239;-68
2021/07/14 05:06:11;;;;;;;9.83;9.13;;;18.20;99.90;;;;;;5072222;28;20181;-68
2021/07/14 05:08:37;;;;;;;7.43;6.97;;;18.20;99.90;;;;;;5071973;28;20542;-68
2021/07/14 05:11:02;;;;;;;8.60;8.00;;;18.10;99.90;;;;;;5071887;28;20231;-68
2021/07/14 05:13:28;;;;;;;7.83;7.33;;;18.10;99.90;;;;;;5071931;28;20216;-68
2021/07/14 05:15:54;;;;;;;7.93;7.43;;;18.10;99.90;;;;;;5072188;28;20177;-68
2021/07/14 05:18:19;;;;;;;12.03;7.90;;;18.20;99.90;;;;;;5071625;28;20583;-68
2021/07/14 05:20:45;;;;;;;9.87;8.00;;;18.30;99.90;;;;;;5071722;28;20241;-68
2021/07/14 05:23:10;;;;;;;8.47;7.77;;;18.40;99.90;;;;;;5071732;28;20178;-68
2021/07/14 05:25:36;;;;;;;11.20;8.80;;;18.40;99.90;;;;;;5071992;28;20232;-68
2021/07/14 05:28:03;;;;;;;9.63;8.57;;;18.40;99.90;;;;;;5071600;28;20198;-68
2021/07/14 05:30:29;;;;;;;9.10;8.40;;;18.40;99.90;;;;;;5071618;28;20213;-68
2021/07/14 05:32:54;;;;;;;12.10;8.50;;;18.50;99.90;;;;;;5071077;28;20236;-68
2021/07/14 05:35:20;;;;;;;10.13;9.13;;;18.50;99.90;;;;;;5071770;28;20625;-68
2021/07/14 05:37:46;;;;;;;11.53;8.37;;;18.40;99.90;;;;;;5071623;28;20289;-68
2021/07/14 05:40:12;;;;;;;9.97;9.17;;;18.40;99.90;;;;;;5071361;28;20580;-68
2021/07/14 05:42:37;;;;;;;9.77;8.70;;;18.40;99.90;;;;;;5071511;28;20181;-68
2021/07/14 05:45:03;;;;;;;10.73;9.00;;;18.40;99.90;;;;;;5069906;28;20181;-69
2021/07/14 05:47:29;;;;;;;10.80;9.70;;;18.50;99.90;;;;;;5071344;28;20202;-68
2021/07/14 05:49:55;;;;;;;10.93;9.83;;;18.60;99.90;;;;;;5071400;28;20173;-68
2021/07/14 05:52:20;;;;;;;10.83;9.83;;;18.60;99.90;;;;;;5071071;28;20186;-70
2021/07/14 05:54:46;;;;;;;12.17;10.13;;;18.70;99.90;;;;;;5071684;28;20260;-68
2021/07/14 05:57:12;;;;;;;11.77;10.77;;;18.60;99.90;;;;;;5071126;28;20739;-69
2021/07/14 05:59:37;;;;;;;12.10;11.00;;;18.70;99.90;;;;;;5071268;28;20178;-69
2021/07/14 06:02:03;;;;;;;16.93;10.77;;;18.70;99.90;;;;;;5071015;28;20208;-69
2021/07/14 06:04:30;;;;;;;16.50;12.83;;;18.70;99.90;;;;;;5070342;28;20194;-69
2021/07/14 06:06:56;;;;;;;18.57;14.30;;;18.80;99.90;;;;;;5071212;28;20754;-69
2021/07/14 06:09:23;;;;;;;20.27;14.83;;;18.90;99.90;;;;;;5071270;28;20174;-68
2021/07/14 06:11:49;;;;;;;21.50;16.47;;;18.90;99.90;;;;;;5070954;28;20186;-69
2021/07/14 06:14:14;;;;;;;25.73;16.30;;;18.90;99.90;;;;;;5071104;28;20193;-69
2021/07/14 06:16:40;;;;;;;24.77;17.83;;;19.00;99.90;;;;;;5071287;28;20552;-69
2021/07/14 06:19:05;;;;;;;27.73;20.90;;;19.00;99.90;;;;;;5071101;28;20688;-69
2021/07/14 06:21:31;;;;;;;34.60;19.97;;;19.00;99.90;;;;;;5070335;28;20700;-68
2021/07/14 06:23:57;;;;;;;30.23;20.70;;;19.00;99.90;;;;;;5071383;28;20174;-69
2021/07/14 06:26:23;;;;;;;30.03;20.23;;;18.90;99.90;;;;;;5071033;28;20201;-68
2021/07/14 06:28:48;;;;;;;28.93;18.40;;;18.90;99.90;;;;;;5071243;28;20215;-68
2021/07/14 06:31:14;;;;;;;27.70;18.80;;;18.90;99.90;;;;;;5070822;28;20213;-68
2021/07/14 06:33:41;;;;;;;22.50;17.40;;;19.00;99.90;;;;;;5071034;28;20186;-68
2021/07/14 06:36:07;;;;;;;27.97;18.10;;;19.00;99.90;;;;;;5069840;28;20178;-69
2021/07/14 06:38:34;;;;;;;25.33;19.40;;;19.00;99.90;;;;;;5071020;28;20233;-69
2021/07/14 06:41:00;;;;;;;8.67;8.27;;;19.10;99.90;;;;;;5070786;28;20201;-69
2021/07/14 06:43:49;;;;;;;8.10;7.80;;;18.90;99.90;;;;;;5067234;28;20708;-69
2021/07/14 06:46:15;;;;;;;6.17;5.93;;;18.90;99.90;;;;;;5074010;28;20284;-69
2021/07/14 06:48:41;;;;;;;6.00;5.80;;;19.00;99.90;;;;;;5074686;28;20205;-68
2021/07/14 06:51:08;;;;;;;6.03;5.83;;;18.90;99.90;;;;;;5073711;28;20181;-69
2021/07/14 06:53:34;;;;;;;10.90;10.43;;;18.90;99.90;;;;;;5074637;28;20181;-68
2021/07/14 06:56:00;;;;;;;8.97;8.57;;;18.90;99.90;;;;;;5074568;28;20178;-68
2021/07/14 06:58:27;;;;;;;11.63;11.00;;;18.80;99.90;;;;;;5074465;28;20197;-69
2021/07/14 09:10:47;;;;;;;3.97;3.77;;;18.90;99.90;;;;;;5108856;27;20532;-65
2021/07/14 09:13:14;;;;;;;3.90;3.80;;;19.20;99.90;;;;;;5107018;28;20199;-66
2021/07/14 09:15:45;;;;;;;4.23;4.07;;;19.20;99.90;;;;;;5108475;28;20586;-66
2021/07/14 09:18:13;;;;;;;3.20;3.10;;;19.20;99.90;;;;;;5101858;28;20244;-68
2021/07/14 09:20:39;;;;;;;6.00;5.70;;;19.20;99.90;;;;;;5088335;28;20260;-66
2021/07/14 09:23:09;;;;;;;4.60;4.40;;;19.00;99.90;;;;;;5101309;22;20766;-68
2021/07/14 09:26:04;;;;;;;7.27;6.97;;;18.90;99.90;;;;;;5111771;28;20226;-68
2021/07/14 09:28:34;;;;;;;3.70;3.60;;;18.90;99.90;;;;;;5104939;28;20636;-67
2021/07/14 09:31:03;;;;;;;3.70;3.60;;;18.80;99.90;;;;;;5102384;28;20188;-67
2021/07/14 09:33:29;;;;;;;4.13;3.97;;;18.90;99.90;;;;;;5108452;28;20606;-67
2021/07/14 09:35:57;;;;;;;4.20;4.00;;;18.80;99.90;;;;;;5091335;28;20252;-67
2021/07/14 09:38:28;;;;;;;4.17;4.03;;;18.70;99.90;;;;;;5099903;28;20197;-67
2021/07/14 09:40:58;;;;;;;4.07;3.93;;;18.70;99.90;;;;;;5112888;28;20173;-67
2021/07/14 09:43:23;;;;;;;4.47;4.27;;;18.60;99.90;;;;;;5111286;28;20212;-67
2021/07/14 09:45:54;;;;;;;5.80;5.60;;;18.60;99.90;;;;;;5114185;28;20170;-67
2021/07/14 09:48:33;;;;;;;6.77;6.47;;;18.60;99.90;;;;;;5106451;28;20238;-67
